Time;durP1;ratioP1;P1;durP2;ratioP2;P2;SDS_P1;SDS_P2;PMS_P1;PMS_P2;Temp;Humidity;BMP_temperature;BMP_pressure;BME280_temperature;BME280_humidity;BME280_pressure;Samples;Min_cycle;Max_cycle;Signal;HPM_P1;HPM_P2
2023/12/06 00:01:53;;;;;;;;;;;3.70;91.30;;;;;;5045858;28;19931;-61
2023/12/06 00:04:27;;;;;;;;;;;3.70;91.20;;;;;;5045042;28;19986;-63
2023/12/06 00:07:00;;;;;;;;;;;3.70;91.20;;;;;;5049330;28;19929;-63
2023/12/06 00:09:33;;;;;;;;;;;3.70;91.20;;;;;;5045735;28;20388;-63
2023/12/06 00:12:07;;;;;;;;;;;3.70;91.20;;;;;;5049692;28;19935;-63
2023/12/06 00:14:40;;;;;;;;;;;3.70;91.20;;;;;;5049435;28;19925;-63
2023/12/06 00:17:13;;;;;;;;;;;3.70;91.20;;;;;;5047585;28;19924;-63
2023/12/06 00:19:48;;;;;;;;;;;3.70;91.20;;;;;;5049726;28;19925;-64
2023/12/06 00:22:21;;;;;;;;;;;3.70;91.20;;;;;;5045898;28;20283;-64
2023/12/06 00:24:57;;;;;;;;;;;3.70;91.20;;;;;;5048639;28;19975;-63
2023/12/06 00:27:30;;;;;;;;;;;3.70;91.20;;;;;;5045593;28;19929;-63
2023/12/06 00:30:04;;;;;;;;;;;3.70;91.10;;;;;;5047600;28;19935;-63
2023/12/06 00:32:37;;;;;;;;;;;3.70;91.20;;;;;;5047274;28;19941;-63
2023/12/06 00:35:12;;;;;;;;;;;3.70;91.10;;;;;;5045887;28;19931;-61
2023/12/06 00:37:44;;;;;;;;;;;3.70;91.20;;;;;;5043634;28;19925;-62
2023/12/06 00:40:17;;;;;;;;;;;3.70;91.00;;;;;;5028036;28;20038;-63
2023/12/06 00:42:50;;;;;;;;;;;3.70;91.20;;;;;;5041708;28;20301;-62
2023/12/06 00:45:23;;;;;;;;;;;3.70;91.20;;;;;;5047459;28;19924;-65
2023/12/06 00:47:56;;;;;;;;;;;3.70;91.20;;;;;;5047774;28;19924;-62
2023/12/06 00:50:31;;;;;;;;;;;3.70;91.10;;;;;;5047751;28;19994;-64
2023/12/06 00:53:04;;;;;;;;;;;3.70;91.20;;;;;;5042628;28;19994;-63
2023/12/06 00:55:37;;;;;;;;;;;3.70;91.10;;;;;;5047018;28;19954;-62
2023/12/06 00:58:10;;;;;;;;;;;3.70;91.20;;;;;;5049667;28;19935;-63
2023/12/06 01:00:43;;;;;;;;;;;3.70;91.30;;;;;;5046165;28;19945;-67
2023/12/06 01:03:16;;;;;;;;;;;3.70;91.20;;;;;;5049502;28;19982;-68
2023/12/06 01:05:51;;;;;;;;;;;3.70;91.10;;;;;;5046712;28;19940;-68
2023/12/06 01:08:24;;;;;;;;;;;3.70;91.20;;;;;;5047201;28;19925;-67
2023/12/06 01:10:57;;;;;;;;;;;3.70;91.30;;;;;;5046702;28;19979;-67
2023/12/06 01:13:30;;;;;;;;;;;3.70;91.30;;;;;;5046039;28;19932;-68
2023/12/06 01:16:03;;;;;;;;;;;3.70;91.30;;;;;;5045277;28;19932;-68
2023/12/06 01:18:36;;;;;;;;;;;3.70;91.30;;;;;;5043460;28;19925;-68
2023/12/06 01:21:13;;;;;;;;;;;3.70;91.30;;;;;;5047106;28;20395;-69
2023/12/06 01:23:46;;;;;;;;;;;3.70;91.30;;;;;;5046260;28;19929;-68
2023/12/06 01:26:23;;;;;;;;;;;3.70;91.20;;;;;;5047039;28;19933;-67
2023/12/06 01:28:56;;;;;;;;;;;3.70;91.20;;;;;;5046194;28;19931;-67
2023/12/06 01:31:29;;;;;;;;;;;3.80;91.20;;;;;;5046478;28;19939;-68
2023/12/06 01:34:02;;;;;;;;;;;3.80;91.20;;;;;;5045429;28;20375;-66
2023/12/06 01:36:37;;;;;;;;;;;3.80;91.20;;;;;;5048164;28;19986;-68
2023/12/06 01:39:09;;;;;;;;;;;3.80;91.20;;;;;;5049978;28;20398;-67
2023/12/06 01:41:46;;;;;;;;;;;3.80;91.10;;;;;;5049681;28;19925;-68
2023/12/06 01:44:20;;;;;;;;;;;3.90;91.10;;;;;;5051783;28;19933;-68
2023/12/06 01:46:53;;;;;;;;;;;3.80;91.10;;;;;;5051089;28;19932;-67
2023/12/06 01:49:27;;;;;;;;;;;3.90;91.10;;;;;;5050756;28;19925;-67
2023/12/06 01:52:02;;;;;;;;;;;3.80;91.00;;;;;;5028126;28;20323;-69
2023/12/06 01:54:35;;;;;;;;;;;3.80;91.10;;;;;;5052048;28;19935;-67
2023/12/06 01:57:08;;;;;;;;;;;3.90;91.00;;;;;;5048690;28;20022;-67
2023/12/06 01:59:42;;;;;;;;;;;3.90;91.10;;;;;;5048829;28;19925;-67
2023/12/06 02:02:15;;;;;;;;;;;3.90;91.10;;;;;;5049750;28;19994;-68
2023/12/06 02:04:49;;;;;;;;;;;3.80;91.00;;;;;;5050623;28;19932;-68
2023/12/06 02:07:24;;;;;;;;;;;3.80;91.10;;;;;;5048746;28;20256;-67
2023/12/06 02:10:00;;;;;;;;;;;3.80;91.10;;;;;;5045345;28;19924;-69
2023/12/06 02:12:33;;;;;;;;;;;3.80;91.20;;;;;;5040911;28;20360;-62
2023/12/06 02:15:09;;;;;;;;;;;3.80;91.10;;;;;;5051774;28;19971;-61
2023/12/06 02:17:43;;;;;;;;;;;3.80;91.20;;;;;;5048889;28;19932;-59
2023/12/06 02:20:16;;;;;;;;;;;3.80;91.30;;;;;;5048900;28;19928;-61
2023/12/06 02:22:44;;;;;;;;;;;3.80;91.20;;;;;;5049213;28;19928;-62
2023/12/06 02:25:19;;;;;;;;;;;3.80;91.20;;;;;;5047982;28;20380;-62
2023/12/06 02:27:52;;;;;;;;;;;3.80;91.20;;;;;;5049352;28;19929;-60
2023/12/06 02:30:25;;;;;;;;;;;3.80;91.00;;;;;;5040614;28;19929;-61
2023/12/06 02:32:58;;;;;;;;;;;3.80;91.20;;;;;;5050286;28;19925;-60
2023/12/06 02:35:34;;;;;;;;;;;3.80;91.10;;;;;;5049761;28;19929;-60
2023/12/06 02:38:08;;;;;;;;;;;3.80;91.20;;;;;;5050656;28;19933;-61
2023/12/06 02:40:47;;;;;;;;;;;3.80;91.20;;;;;;5050182;28;19936;-61
2023/12/06 02:43:20;;;;;;;;;;;3.80;91.20;;;;;;5045453;28;20015;-61
2023/12/06 02:45:54;;;;;;;;;;;3.80;91.20;;;;;;5049441;28;19933;-61
2023/12/06 02:48:27;;;;;;;;;;;3.80;91.20;;;;;;5048709;28;19936;-61
2023/12/06 02:51:00;;;;;;;;;;;3.80;91.30;;;;;;5049771;28;19960;-62
2023/12/06 02:53:33;;;;;;;;;;;3.80;91.20;;;;;;5048626;28;20012;-60
2023/12/06 02:56:08;;;;;;;;;;;3.80;91.20;;;;;;5050497;28;19924;-61
2023/12/06 02:58:41;;;;;;;;;;;3.70;91.10;;;;;;5022381;28;19929;-61
2023/12/06 03:01:14;;;;;;;;;;;3.70;91.20;;;;;;5046107;28;19929;-60
2023/12/06 03:03:54;;;;;;;;;;;3.70;91.20;;;;;;5048015;28;19928;-62
2023/12/06 03:06:27;;;;;;;;;;;3.80;91.20;;;;;;5048285;28;20403;-62
2023/12/06 03:09:00;;;;;;;;;;;3.70;91.20;;;;;;5050231;28;19943;-62
2023/12/06 03:11:35;;;;;;;;;;;3.70;91.20;;;;;;5023080;28;19939;-61
2023/12/06 03:14:07;;;;;;;;;;;3.70;91.30;;;;;;5051185;28;19932;-61
2023/12/06 03:16:40;;;;;;;;;;;3.70;91.10;;;;;;5044293;28;19932;-61
2023/12/06 03:19:13;;;;;;;;;;;3.70;91.20;;;;;;5047720;28;19968;-61
2023/12/06 03:21:40;;;;;;;;;;;3.80;91.30;;;;;;5046852;28;20371;-76
2023/12/06 03:24:13;;;;;;;;;;;3.70;91.20;;;;;;5050569;28;19932;-77
2023/12/06 03:26:48;;;;;;;;;;;3.80;91.30;;;;;;5048351;28;19931;-75
2023/12/06 03:29:21;;;;;;;;;;;3.70;91.30;;;;;;5049219;28;20375;-77
2023/12/06 03:31:54;;;;;;;;;;;3.70;91.20;;;;;;5044173;28;19982;-76
2023/12/06 03:34:27;;;;;;;;;;;3.70;91.30;;;;;;5049228;28;19925;-77
2023/12/06 03:37:02;;;;;;;;;;;3.70;91.20;;;;;;5049610;28;19939;-77
2023/12/06 03:39:35;;;;;;;;;;;3.70;91.30;;;;;;5046649;28;19929;-76
2023/12/06 03:42:10;;;;;;;;;;;3.70;91.30;;;;;;5044905;28;19935;-75
2023/12/06 03:44:42;;;;;;;;;;;3.70;91.30;;;;;;5048405;28;19924;-77
2023/12/06 03:47:15;;;;;;;;;;;3.70;91.30;;;;;;5041495;28;19931;-77
2023/12/06 03:49:48;;;;;;;;;;;3.70;91.30;;;;;;5037541;28;19940;-77
2023/12/06 03:52:22;;;;;;;;;;;3.70;91.20;;;;;;5047868;28;20003;-77
2023/12/06 03:54:55;;;;;;;;;;;3.80;91.30;;;;;;5050974;28;20051;-77
2023/12/06 03:57:30;;;;;;;;;;;3.80;91.30;;;;;;5048015;28;19939;-76
2023/12/06 04:00:04;;;;;;;;;;;3.80;91.30;;;;;;5049523;28;19925;-77
2023/12/06 04:02:40;;;;;;;;;;;3.80;91.30;;;;;;5048113;28;19929;-76
2023/12/06 04:05:10;;;;;;;;;;;3.80;91.30;;;;;;5049824;28;19928;-76
2023/12/06 04:07:43;;;;;;;;;;;3.80;91.30;;;;;;5050934;28;19931;-73
2023/12/06 04:10:16;;;;;;;;;;;3.80;91.30;;;;;;5048361;28;19932;-75
2023/12/06 04:12:48;;;;;;;;;;;3.80;91.30;;;;;;5048759;28;19932;-78
2023/12/06 04:15:20;;;;;;;;;;;3.80;91.30;;;;;;5046554;28;19933;-76
2023/12/06 04:17:54;;;;;;;;;;;3.80;91.30;;;;;;5046908;28;20024;-75
2023/12/06 04:20:27;;;;;;;;;;;3.80;91.30;;;;;;5045447;28;19971;-75
2023/12/06 04:23:00;;;;;;;;;;;3.80;91.40;;;;;;5047807;28;19935;-76
2023/12/06 04:25:33;;;;;;;;;;;3.80;91.20;;;;;;5048743;28;19928;-75
2023/12/06 04:28:08;;;;;;;;;;;3.80;91.30;;;;;;5048848;28;20356;-76
2023/12/06 04:30:41;;;;;;;;;;;3.80;91.30;;;;;;5047290;28;19936;-76
2023/12/06 04:33:14;;;;;;;;;;;3.80;91.30;;;;;;5046856;28;19935;-62
2023/12/06 04:35:47;;;;;;;;;;;3.80;91.20;;;;;;5049711;28;19936;-63
2023/12/06 04:38:20;;;;;;;;;;;3.80;91.30;;;;;;5048539;28;20015;-62
2023/12/06 04:41:00;;;;;;;;;;;3.80;91.20;;;;;;5047382;28;20060;-63
2023/12/06 04:43:35;;;;;;;;;;;3.80;91.30;;;;;;5048156;28;19929;-63
2023/12/06 04:46:08;;;;;;;;;;;3.80;91.40;;;;;;5026722;28;19925;-64
2023/12/06 04:48:41;;;;;;;;;;;3.80;91.30;;;;;;5047761;28;19960;-63
2023/12/06 04:51:16;;;;;;;;;;;3.80;91.40;;;;;;5045379;28;19973;-64
2023/12/06 04:53:48;;;;;;;;;;;3.80;91.40;;;;;;5048241;28;19928;-64
2023/12/06 04:56:21;;;;;;;;;;;3.80;91.40;;;;;;5049614;28;19928;-64
2023/12/06 04:59:02;;;;;;;;;;;3.80;91.40;;;;;;5046106;28;19929;-64
2023/12/06 05:01:35;;;;;;;;;;;3.80;91.40;;;;;;5047260;28;19939;-63
2023/12/06 05:04:08;;;;;;;;;;;3.80;91.30;;;;;;5046592;28;20277;-64
2023/12/06 05:06:41;;;;;;;;;;;3.80;91.30;;;;;;5045686;28;19929;-63
2023/12/06 05:09:14;;;;;;;;;;;3.90;91.30;;;;;;5048196;28;19932;-63
2023/12/06 05:11:47;;;;;;;;;;;3.80;91.30;;;;;;5047216;28;19979;-63
2023/12/06 05:14:22;;;;;;;;;;;3.80;91.30;;;;;;5050073;28;20011;-64
2023/12/06 05:16:55;;;;;;;;;;;3.90;91.30;;;;;;5051720;28;19936;-64
2023/12/06 05:19:38;;;;;;;;;;;3.90;91.40;;;;;;5052104;28;19925;-64
2023/12/06 05:22:10;;;;;;;;;;;3.90;91.30;;;;;;5047384;28;20014;-64
2023/12/06 05:24:43;;;;;;;;;;;3.90;91.30;;;;;;5050288;28;19924;-64
2023/12/06 05:27:17;;;;;;;;;;;3.90;91.20;;;;;;5048453;28;19925;-64
2023/12/06 05:29:52;;;;;;;;;;;3.90;91.30;;;;;;5046939;28;20011;-63
2023/12/06 05:32:24;;;;;;;;;;;3.90;91.30;;;;;;5050966;28;19929;-64
2023/12/06 05:34:57;;;;;;;;;;;3.90;91.30;;;;;;5051760;28;19935;-64
2023/12/06 05:37:30;;;;;;;;;;;3.80;91.20;;;;;;5049948;28;19933;-63
2023/12/06 05:40:06;;;;;;;;;;;3.90;91.30;;;;;;5049346;28;20430;-63
2023/12/06 05:42:39;;;;;;;;;;;3.90;91.30;;;;;;5045421;28;20020;-60
2023/12/06 05:45:14;;;;;;;;;;;3.90;91.20;;;;;;5050649;28;19964;-60
2023/12/06 05:47:47;;;;;;;;;;;3.90;91.20;;;;;;5051735;28;20384;-60
2023/12/06 05:50:20;;;;;;;;;;;3.90;91.30;;;;;;5049006;28;19928;-60
2023/12/06 05:52:53;;;;;;;;;;;3.90;91.20;;;;;;5049438;28;19933;-60
2023/12/06 05:55:26;;;;;;;;;;;3.90;91.20;;;;;;5051326;28;20041;-60
2023/12/06 05:57:59;;;;;;;;;;;3.90;91.20;;;;;;5051542;28;19925;-61
2023/12/06 06:00:34;;;;;;;;;;;3.90;91.20;;;;;;5047849;28;20010;-61
2023/12/06 06:03:06;;;;;;;;;;;3.90;91.20;;;;;;5051617;28;19929;-60
2023/12/06 06:05:39;;;;;;;;;;;3.90;91.20;;;;;;5051219;28;19928;-60
2023/12/06 06:08:12;;;;;;;;;;;3.90;91.20;;;;;;5049583;28;19928;-60
2023/12/06 06:10:45;;;;;;;;;;;3.90;91.20;;;;;;5050802;28;20490;-60
2023/12/06 06:13:12;;;;;;;;;;;3.90;91.30;;;;;;5052223;28;19936;-61
2023/12/06 06:15:47;;;;;;;;;;;3.90;91.20;;;;;;5049326;28;19928;-61
2023/12/06 06:18:19;;;;;;;;;;;3.90;91.10;;;;;;5048841;28;19932;-59
2023/12/06 06:20:52;;;;;;;;;;;3.90;91.10;;;;;;5049187;28;20025;-61
2023/12/06 06:23:25;;;;;;;;;;;3.80;91.20;;;;;;5049981;28;19964;-60
2023/12/06 06:25:58;;;;;;;;;;;3.80;91.10;;;;;;5048104;28;20456;-60
2023/12/06 06:28:25;;;;;;;;;;;3.80;91.20;;;;;;5048322;28;19929;-60
2023/12/06 06:31:00;;;;;;;;;;;3.70;91.20;;;;;;5047313;28;19975;-60
2023/12/06 06:33:39;;;;;;;;;;;3.70;91.20;;;;;;5047016;28;19925;-59
2023/12/06 06:36:12;;;;;;;;;;;3.80;91.20;;;;;;5050120;28;20015;-60
2023/12/06 06:38:46;;;;;;;;;;;3.80;91.10;;;;;;5048010;28;19931;-59
2023/12/06 06:41:18;;;;;;;;;;;3.90;91.10;;;;;;5047372;28;20026;-60
2023/12/06 06:43:51;;;;;;;;;;;3.80;91.10;;;;;;5050788;28;19935;-61
2023/12/06 06:46:26;;;;;;;;;;;3.90;91.10;;;;;;5049964;28;19925;-60
2023/12/06 06:48:58;;;;;;;;;;;3.80;91.00;;;;;;5049248;28;19935;-60
2023/12/06 06:51:32;;;;;;;;;;;3.80;91.10;;;;;;5050466;28;19932;-61
2023/12/06 06:54:06;;;;;;;;;;;3.80;91.20;;;;;;5049780;28;19931;-61
2023/12/06 06:56:39;;;;;;;;;;;3.80;91.10;;;;;;5050986;28;19925;-60
2023/12/06 06:59:12;;;;;;;;;;;3.70;91.20;;;;;;5050287;28;19931;-62
2023/12/06 07:01:47;;;;;;;;;;;3.80;91.20;;;;;;5047552;28;20006;-61
2023/12/06 07:04:19;;;;;;;;;;;3.80;91.20;;;;;;5048291;28;19928;-62
2023/12/06 07:06:52;;;;;;;;;;;3.70;91.20;;;;;;5044883;28;19940;-61
2023/12/06 07:09:25;;;;;;;;;;;3.80;91.20;;;;;;5046526;28;20015;-62
2023/12/06 07:11:58;;;;;;;;;;;3.80;91.10;;;;;;5048788;28;20649;-59
2023/12/06 07:14:32;;;;;;;;;;;3.80;91.00;;;;;;5049298;28;19964;-61
2023/12/06 07:17:08;;;;;;;;;;;3.80;91.00;;;;;;5048646;28;20430;-62
2023/12/06 07:19:43;;;;;;;;;;;3.80;91.10;;;;;;5048475;28;19924;-61
2023/12/06 07:22:15;;;;;;;;;;;3.80;91.00;;;;;;5045846;28;19933;-61
2023/12/06 07:24:48;;;;;;;;;;;3.80;91.00;;;;;;5046764;28;19939;-62
2023/12/06 07:27:21;;;;;;;;;;;3.80;90.90;;;;;;5044101;28;19933;-60
2023/12/06 07:29:48;;;;;;;;;;;3.80;90.70;;;;;;5050343;28;19929;-61
2023/12/06 07:32:23;;;;;;;;;;;3.80;90.70;;;;;;5045823;28;19932;-60
2023/12/06 07:34:55;;;;;;;;;;;3.80;90.70;;;;;;5049761;28;19936;-60
2023/12/06 07:37:31;;;;;;;;;;;3.80;90.70;;;;;;5048989;28;19929;-60
2023/12/06 07:40:09;;;;;;;;;;;3.80;90.70;;;;;;5049056;28;20410;-61
2023/12/06 07:42:42;;;;;;;;;;;3.90;90.70;;;;;;5049711;28;20372;-61
2023/12/06 07:45:15;;;;;;;;;;;3.90;90.60;;;;;;5048400;28;20429;-61
2023/12/06 07:47:53;;;;;;;;;;;3.90;90.60;;;;;;5047463;28;19931;-61
2023/12/06 07:50:26;;;;;;;;;;;3.90;90.60;;;;;;5047223;28;19933;-62
2023/12/06 07:53:07;;;;;;;;;;;3.80;90.60;;;;;;5048551;28;19971;-61
2023/12/06 07:55:40;;;;;;;;;;;3.80;90.60;;;;;;5049561;28;19925;-62
2023/12/06 07:58:14;;;;;;;;;;;3.80;90.50;;;;;;5047719;28;19928;-61
2023/12/06 08:00:48;;;;;;;;;;;3.80;90.50;;;;;;5046317;28;19932;-70
2023/12/06 08:03:26;;;;;;;;;;;3.70;90.50;;;;;;5044029;28;19955;-64
2023/12/06 08:06:01;;;;;;;;;;;3.80;90.50;;;;;;5047117;28;19928;-65
2023/12/06 08:08:34;;;;;;;;;;;3.80;90.40;;;;;;5048925;28;19929;-64
2023/12/06 08:11:07;;;;;;;;;;;3.70;90.50;;;;;;5047215;28;19928;-64
2023/12/06 08:13:41;;;;;;;;;;;3.70;90.40;;;;;;5049136;28;20054;-65
2023/12/06 08:16:14;;;;;;;;;;;3.70;90.00;;;;;;5049449;28;19976;-64
2023/12/06 08:18:49;;;;;;;;;;;3.70;90.10;;;;;;5049327;28;19928;-64
2023/12/06 08:21:21;;;;;;;;;;;3.70;90.00;;;;;;5048000;28;19925;-64
2023/12/06 08:23:54;;;;;;;;;;;3.70;89.80;;;;;;5046474;28;19932;-63
2023/12/06 08:26:28;;;;;;;;;;;3.70;89.70;;;;;;5046725;28;19963;-64
2023/12/06 08:29:01;;;;;;;;;;;3.70;89.50;;;;;;5046408;28;20015;-63
2023/12/06 08:31:39;;;;;;;;;;;3.70;89.60;;;;;;5045907;28;19933;-63
2023/12/06 08:34:14;;;;;;;;;;;3.70;89.50;;;;;;5047563;28;19933;-64
2023/12/06 08:36:40;;;;;;;;;;;3.70;89.50;;;;;;5047169;28;20383;-64
2023/12/06 08:39:14;;;;;;;;;;;3.70;89.50;;;;;;5048297;28;19933;-64
2023/12/06 08:41:48;;;;;;;;;;;3.70;89.50;;;;;;5046117;28;19929;-64
2023/12/06 08:44:20;;;;;;;;;;;3.70;89.40;;;;;;5044989;28;19929;-63
2023/12/06 08:46:53;;;;;;;;;;;3.70;89.40;;;;;;5045395;28;19974;-64
2023/12/06 08:49:28;;;;;;;;;;;3.70;89.40;;;;;;5048379;28;19933;-64
2023/12/06 08:52:00;;;;;;;;;;;3.60;89.30;;;;;;5051073;28;19931;-63
2023/12/06 08:54:34;;;;;;;;;;;3.60;89.30;;;;;;5048693;28;19932;-63
2023/12/06 08:57:07;;;;;;;;;;;3.60;89.30;;;;;;5050318;28;19929;-63
2023/12/06 08:59:40;;;;;;;;;;;3.60;89.20;;;;;;5050669;28;19931;-64
2023/12/06 09:02:12;;;;;;;;;;;3.60;89.30;;;;;;5050332;28;19940;-63
2023/12/06 09:04:51;;;;;;;;;;;3.70;89.20;;;;;;5051201;28;19925;-64
2023/12/06 09:07:25;;;;;;;;;;;3.70;89.20;;;;;;5050086;28;19925;-64
2023/12/06 09:09:58;;;;;;;;;;;3.60;89.20;;;;;;5049292;28;19928;-63
2023/12/06 09:12:31;;;;;;;;;;;3.60;89.10;;;;;;5050632;28;19925;-71
2023/12/06 09:15:05;;;;;;;;;;;3.60;89.10;;;;;;5052131;28;20019;-71
2023/12/06 09:17:39;;;;;;;;;;;3.60;89.10;;;;;;5051081;28;19944;-72
2023/12/06 09:20:13;;;;;;;;;;;3.70;89.00;;;;;;5051431;28;20020;-71
2023/12/06 09:22:46;;;;;;;;;;;3.70;89.00;;;;;;5053198;28;19925;-72
2023/12/06 09:25:26;;;;;;;;;;;3.60;88.90;;;;;;5049580;28;19963;-71
2023/12/06 09:28:00;;;;;;;;;;;3.60;88.80;;;;;;5030081;28;20010;-72
2023/12/06 09:30:32;;;;;;;;;;;3.60;88.80;;;;;;5049207;28;20285;-72
2023/12/06 09:33:05;;;;;;;;;;;3.60;88.80;;;;;;5050532;28;19932;-71
2023/12/06 09:35:33;;;;;;;;;;;3.50;88.70;;;;;;5051114;28;19940;-72
2023/12/06 09:38:07;;;;;;;;;;;3.60;88.90;;;;;;5050091;28;19956;-71
2023/12/06 09:40:41;;;;;;;;;;;3.70;88.80;;;;;;5050563;28;19932;-71
2023/12/06 09:43:14;;;;;;;;;;;3.70;88.70;;;;;;5049485;28;19936;-72
2023/12/06 09:45:47;;;;;;;;;;;3.70;88.70;;;;;;5049400;28;20267;-71
2023/12/06 09:48:20;;;;;;;;;;;3.60;88.50;;;;;;5050464;28;19935;-71
2023/12/06 09:50:58;;;;;;;;;;;3.70;88.60;;;;;;5049703;28;19972;-71
2023/12/06 09:53:31;;;;;;;;;;;3.70;88.60;;;;;;5050195;28;19924;-71
2023/12/06 09:56:05;;;;;;;;;;;3.70;88.60;;;;;;5051678;28;20383;-71
2023/12/06 09:58:39;;;;;;;;;;;3.70;88.40;;;;;;5051560;28;19929;-71
2023/12/06 10:01:12;;;;;;;;;;;3.60;88.40;;;;;;5049568;28;20375;-71
2023/12/06 10:03:46;;;;;;;;;;;3.60;88.40;;;;;;5048927;28;19948;-71
2023/12/06 10:06:24;;;;;;;;;;;3.60;88.40;;;;;;5047573;28;20384;-73
2023/12/06 10:08:58;;;;;;;;;;;3.60;88.40;;;;;;5051837;28;20771;-72
2023/12/06 10:11:31;;;;;;;;;;;3.60;88.30;;;;;;5041914;28;19948;-71
2023/12/06 10:14:03;;;;;;;;;;;3.60;88.40;;;;;;5052457;28;20027;-71
2023/12/06 10:16:37;;;;;;;;;;;3.60;88.40;;;;;;5051331;28;20003;-71
2023/12/06 10:19:11;;;;;;;;;;;3.60;88.40;;;;;;5048985;28;19932;-72
2023/12/06 10:21:45;;;;;;;;;;;3.70;88.40;;;;;;5046709;28;19975;-63
2023/12/06 10:24:19;;;;;;;;;;;3.60;88.40;;;;;;5050186;28;19943;-63
2023/12/06 10:27:00;;;;;;;;;;;3.70;88.30;;;;;;5051220;28;19951;-63
2023/12/06 10:29:33;;;;;;;;;;;3.70;88.30;;;;;;5049905;28;20059;-63
2023/12/06 10:32:07;;;;;;;;;;;3.70;88.30;;;;;;5051808;28;19929;-62
2023/12/06 10:34:41;;;;;;;;;;;3.70;88.30;;;;;;5048643;28;20034;-62
2023/12/06 10:37:17;;;;;;;;;;;3.70;88.30;;;;;;5051781;28;19929;-63
2023/12/06 10:39:50;;;;;;;;;;;3.70;88.30;;;;;;5049488;28;19932;-63
2023/12/06 10:42:26;;;;;;;;;;;3.70;88.20;;;;;;5044541;28;19948;-62
2023/12/06 10:45:00;;;;;;;;;;;3.70;88.20;;;;;;5051297;28;19947;-62
2023/12/06 10:47:35;;;;;;;;;;;3.70;88.10;;;;;;5032172;28;20417;-63
2023/12/06 10:50:10;;;;;;;;;;;3.70;88.10;;;;;;5050493;28;20000;-63
2023/12/06 10:52:44;;;;;;;;;;;3.70;88.10;;;;;;5050779;28;19978;-61
2023/12/06 10:55:18;;;;;;;;;;;3.70;88.10;;;;;;5050757;28;19939;-62
2023/12/06 10:57:59;;;;;;;;;;;3.70;88.00;;;;;;5048236;28;19936;-64
2023/12/06 11:00:32;;;;;;;;;;;3.60;88.10;;;;;;5050311;28;20014;-63
2023/12/06 11:03:04;;;;;;;;;;;3.60;88.10;;;;;;5050841;28;20023;-63
2023/12/06 11:05:40;;;;;;;;;;;3.60;88.20;;;;;;5049944;28;20007;-64
2023/12/06 11:08:23;;;;;;;;;;;3.60;88.00;;;;;;5047235;28;19979;-64
2023/12/06 11:11:05;;;;;;;;;;;3.60;88.10;;;;;;5050286;28;19932;-62
2023/12/06 11:13:45;;;;;;;;;;;3.60;88.20;;;;;;5049096;28;20310;-63
2023/12/06 11:16:26;;;;;;;;;;;3.60;88.20;;;;;;5042772;28;19929;-64
2023/12/06 11:19:06;;;;;;;;;;;3.60;88.20;;;;;;5043720;28;20375;-63
2023/12/06 11:21:40;;;;;;;;;;;3.60;88.20;;;;;;5043947;28;19929;-63
2023/12/06 11:24:14;;;;;;;;;;;3.60;88.20;;;;;;5042743;28;19928;-63
2023/12/06 11:26:48;;;;;;;;;;;3.60;88.10;;;;;;5047996;28;19950;-63
2023/12/06 11:29:21;;;;;;;;;;;3.60;88.10;;;;;;5047979;28;19928;-63
2023/12/06 11:31:57;;;;;;;;;;;3.50;88.10;;;;;;5047150;28;19947;-68
2023/12/06 11:34:32;;;;;;;;;;;3.50;88.20;;;;;;5046222;28;20332;-68
2023/12/06 11:37:08;;;;;;;;;;;3.50;88.20;;;;;;5047946;28;19925;-68
2023/12/06 11:39:43;;;;;;;;;;;3.60;88.20;;;;;;5043239;28;19925;-67
2023/12/06 11:42:17;;;;;;;;;;;3.50;88.20;;;;;;5046217;28;19943;-67
2023/12/06 11:44:54;;;;;;;;;;;3.50;88.20;;;;;;5047162;28;19928;-67
2023/12/06 11:47:27;;;;;;;;;;;3.50;88.10;;;;;;5047874;28;20441;-68
2023/12/06 11:50:01;;;;;;;;;;;3.50;88.00;;;;;;5044968;28;19925;-67
2023/12/06 11:52:45;;;;;;;;;;;3.50;88.20;;;;;;5049226;28;19964;-68
2023/12/06 11:55:20;;;;;;;;;;;3.50;88.10;;;;;;5048318;28;19944;-67
2023/12/06 11:58:01;;;;;;;;;;;3.50;88.20;;;;;;5046379;28;19987;-68
2023/12/06 12:00:34;;;;;;;;;;;3.50;88.20;;;;;;5048345;28;19936;-67
2023/12/06 12:03:09;;;;;;;;;;;3.50;88.30;;;;;;5049386;28;19979;-67
2023/12/06 12:05:43;;;;;;;;;;;3.50;88.30;;;;;;5043193;28;19940;-69
2023/12/06 12:08:17;;;;;;;;;;;3.50;88.30;;;;;;5046888;28;20398;-68
2023/12/06 12:10:53;;;;;;;;;;;3.50;88.30;;;;;;5045966;28;19928;-67
2023/12/06 12:13:27;;;;;;;;;;;3.50;88.40;;;;;;5049796;28;19960;-68
2023/12/06 12:16:01;;;;;;;;;;;3.50;88.40;;;;;;5048908;28;19929;-68
2023/12/06 12:18:34;;;;;;;;;;;3.50;88.40;;;;;;5049367;28;19967;-68
2023/12/06 12:21:10;;;;;;;;;;;3.50;88.40;;;;;;5022414;28;19928;-68
2023/12/06 12:26:53;;;;;;;;;;;3.50;88.50;;;;;;5045860;28;19970;-67
2023/12/06 12:29:27;;;;;;;;;;;3.50;88.60;;;;;;5047998;28;19932;-68
2023/12/06 12:32:00;;;;;;;;;;;3.50;88.50;;;;;;5048948;28;20303;-67
2023/12/06 12:34:34;;;;;;;;;;;3.50;88.60;;;;;;5049373;28;19925;-68
2023/12/06 12:37:07;;;;;;;;;;;3.50;88.60;;;;;;5048212;28;19931;-68
2023/12/06 12:39:40;;;;;;;;;;;3.50;88.60;;;;;;5046307;28;19974;-67
2023/12/06 12:42:14;;;;;;;;;;;3.50;88.60;;;;;;5047968;28;19924;-63
2023/12/06 12:44:48;;;;;;;;;;;3.50;88.60;;;;;;5049400;28;20356;-63
2023/12/06 12:47:21;;;;;;;;;;;3.50;88.70;;;;;;5048890;28;19925;-62
2023/12/06 12:49:54;;;;;;;;;;;3.50;88.60;;;;;;5049383;28;19931;-65
2023/12/06 12:52:30;;;;;;;;;;;3.50;88.60;;;;;;5049070;28;19978;-62
2023/12/06 12:55:05;;;;;;;;;;;3.50;88.60;;;;;;5048544;28;20004;-63
2023/12/06 12:57:36;;;;;;;;;;;3.50;88.60;;;;;;5044830;28;20031;-63
2023/12/06 13:00:18;;;;;;;;;;;3.50;88.70;;;;;;5049207;28;19979;-61
2023/12/06 13:02:52;;;;;;;;;;;3.50;88.80;;;;;;5049151;28;19925;-63
2023/12/06 13:05:27;;;;;;;;;;;3.50;88.70;;;;;;5047106;28;20322;-63
2023/12/06 13:08:01;;;;;;;;;;;3.50;88.60;;;;;;5047997;28;19925;-62
2023/12/06 13:10:34;;;;;;;;;;;3.50;88.80;;;;;;5048379;28;19933;-62
2023/12/06 13:13:08;;;;;;;;;;;3.50;88.70;;;;;;5047787;28;20455;-62
2023/12/06 13:15:41;;;;;;;;;;;3.50;88.80;;;;;;5048423;28;19936;-62
2023/12/06 13:18:15;;;;;;;;;;;3.50;88.80;;;;;;5044962;28;20019;-63
2023/12/06 13:20:48;;;;;;;;;;;3.60;88.80;;;;;;5047910;28;20425;-63
2023/12/06 13:23:21;;;;;;;;;;;3.60;88.80;;;;;;5049477;28;20433;-63
2023/12/06 13:25:55;;;;;;;;;;;3.60;88.70;;;;;;5048459;28;19924;-64
2023/12/06 13:28:29;;;;;;;;;;;3.70;88.80;;;;;;5053046;28;20332;-62
2023/12/06 13:31:02;;;;;;;;;;;3.70;88.70;;;;;;5057024;28;20426;-62
2023/12/06 13:33:28;;;;;;;;;;;3.60;88.80;;;;;;5054980;28;19929;-62
2023/12/06 13:36:03;;;;;;;;;;;3.70;88.80;;;;;;5049147;28;19933;-63
2023/12/06 13:38:36;;;;;;;;;;;3.70;88.90;;;;;;5052525;28;19925;-63
2023/12/06 13:41:02;;;;;;;;;;;3.70;88.90;;;;;;5052724;28;19929;-62
2023/12/06 13:43:37;;;;;;;;;;;3.70;89.00;;;;;;5050690;28;19980;-63
2023/12/06 13:46:04;;;;;;;;;;;3.60;89.00;;;;;;5052472;28;19925;-63
2023/12/06 13:48:37;;;;;;;;;;;3.60;89.00;;;;;;5051896;28;19956;-62
2023/12/06 13:51:10;;;;;;;;;;;3.60;89.10;;;;;;5051978;28;19978;-71
2023/12/06 13:53:49;;;;;;;;;;;3.60;89.20;;;;;;5049372;28;19929;-72
2023/12/06 13:56:23;;;;;;;;;;;3.60;89.20;;;;;;5051775;28;20026;-71
2023/12/06 13:58:57;;;;;;;;;;;3.60;89.20;;;;;;5052317;28;19960;-72
2023/12/06 14:01:31;;;;;;;;;;;3.70;89.20;;;;;;5050837;28;19962;-71
2023/12/06 14:04:04;;;;;;;;;;;3.70;89.30;;;;;;5052230;28;19929;-72
2023/12/06 14:06:38;;;;;;;;;;;3.60;89.30;;;;;;5051769;28;20027;-71
2023/12/06 14:09:11;;;;;;;;;;;3.70;89.30;;;;;;5049469;28;19929;-71
2023/12/06 14:11:44;;;;;;;;;;;3.70;89.30;;;;;;5051487;28;20051;-71
2023/12/06 14:14:22;;;;;;;;;;;3.70;89.30;;;;;;5049786;28;20026;-72
2023/12/06 14:16:55;;;;;;;;;;;3.60;89.30;;;;;;5051856;28;19932;-72
2023/12/06 14:19:28;;;;;;;;;;;3.60;89.30;;;;;;5050798;28;19963;-71
2023/12/06 14:22:01;;;;;;;;;;;3.60;89.30;;;;;;5052340;28;20016;-72
2023/12/06 14:24:34;;;;;;;;;;;3.60;89.30;;;;;;5051756;28;19986;-71
2023/12/06 14:27:07;;;;;;;;;;;3.60;89.30;;;;;;5049427;28;19929;-72
2023/12/06 14:29:41;;;;;;;;;;;3.60;89.30;;;;;;5050272;28;20022;-71
2023/12/06 14:32:14;;;;;;;;;;;3.60;89.30;;;;;;5051047;28;19931;-71
2023/12/06 14:34:47;;;;;;;;;;;3.60;89.30;;;;;;5051970;28;19932;-70
2023/12/06 14:37:20;;;;;;;;;;;3.60;89.40;;;;;;5050172;28;19924;-71
2023/12/06 14:39:53;;;;;;;;;;;3.60;89.40;;;;;;5048913;28;19925;-71
2023/12/06 14:42:26;;;;;;;;;;;3.60;89.40;;;;;;5051114;28;19928;-72
2023/12/06 14:45:00;;;;;;;;;;;3.70;89.40;;;;;;5050874;28;19925;-71
2023/12/06 14:47:47;;;;;;;;;;;3.60;89.40;;;;;;5050219;28;20216;-71
2023/12/06 14:50:27;;;;;;;;;;;3.60;89.40;;;;;;5051088;28;19928;-72
2023/12/06 14:53:01;;;;;;;;;;;3.60;89.40;;;;;;5032980;28;19948;-71
2023/12/06 14:55:34;;;;;;;;;;;3.70;89.40;;;;;;5050855;28;19929;-72
2023/12/06 14:58:07;;;;;;;;;;;3.70;89.40;;;;;;5048910;28;19929;-72
2023/12/06 15:00:46;;;;;;;;;;;3.60;89.40;;;;;;5050082;28;19925;-72
2023/12/06 15:03:19;;;;;;;;;;;3.70;89.40;;;;;;5050095;28;19947;-61
2023/12/06 15:05:56;;;;;;;;;;;3.70;89.40;;;;;;5051536;28;19925;-60
2023/12/06 15:08:29;;;;;;;;;;;3.70;89.40;;;;;;5051113;28;19924;-60
2023/12/06 15:11:02;;;;;;;;;;;3.70;89.40;;;;;;5045337;28;19975;-61
2023/12/06 15:13:36;;;;;;;;;;;3.70;89.40;;;;;;5049044;28;20031;-60